sensor_id;sensor_type;location;lat;lon;timestamp;temperature;humidity
12655;DHT22;6392;44.644;11.448;2024-03-17T00:01:36;12.50;99.90
12655;DHT22;6392;44.644;11.448;2024-03-17T00:04:03;12.40;99.90
12655;DHT22;6392;44.644;11.448;2024-03-17T00:06:32;12.40;99.90
12655;DHT22;6392;44.644;11.448;2024-03-17T00:11:37;12.30;99.90
12655;DHT22;6392;44.644;11.448;2024-03-17T00:14:07;12.20;99.90
12655;DHT22;6392;44.644;11.448;2024-03-17T00:16:35;12.20;99.90
12655;DHT22;6392;44.644;11.448;2024-03-17T00:19:02;12.20;99.90
12655;DHT22;6392;44.644;11.448;2024-03-17T00:21:28;12.20;99.90
12655;DHT22;6392;44.644;11.448;2024-03-17T00:23:56;12.10;99.90
12655;DHT22;6392;44.644;11.448;2024-03-17T00:26:23;12.10;99.90
12655;DHT22;6392;44.644;11.448;2024-03-17T00:28:50;12.10;99.90
12655;DHT22;6392;44.644;11.448;2024-03-17T00:31:20;12.10;99.90
12655;DHT22;6392;44.644;11.448;2024-03-17T00:33:48;12.00;99.90
12655;DHT22;6392;44.644;11.448;2024-03-17T00:36:17;12.00;99.90
12655;DHT22;6392;44.644;11.448;2024-03-17T00:38:44;12.00;99.90
12655;DHT22;6392;44.644;11.448;2024-03-17T00:41:10;12.00;99.90
12655;DHT22;6392;44.644;11.448;2024-03-17T00:43:38;12.00;99.90
12655;DHT22;6392;44.644;11.448;2024-03-17T00:46:04;12.00;99.90
12655;DHT22;6392;44.644;11.448;2024-03-17T00:48:32;12.00;99.90
12655;DHT22;6392;44.644;11.448;2024-03-17T00:51:00;12.00;99.90
12655;DHT22;6392;44.644;11.448;2024-03-17T00:53:28;12.00;99.90
12655;DHT22;6392;44.644;11.448;2024-03-17T00:55:55;12.00;99.90
12655;DHT22;6392;44.644;11.448;2024-03-17T00:58:24;11.90;99.90
12655;DHT22;6392;44.644;11.448;2024-03-17T01:00:50;11.80;99.90
12655;DHT22;6392;44.644;11.448;2024-03-17T01:03:20;11.80;99.90
12655;DHT22;6392;44.644;11.448;2024-03-17T01:05:47;11.80;99.90
12655;DHT22;6392;44.644;11.448;2024-03-17T01:08:21;11.70;99.90
12655;DHT22;6392;44.644;11.448;2024-03-17T01:10:48;11.70;99.90
12655;DHT22;6392;44.644;11.448;2024-03-17T01:13:17;11.60;99.90
12655;DHT22;6392;44.644;11.448;2024-03-17T01:15:44;11.70;99.90
12655;DHT22;6392;44.644;11.448;2024-03-17T01:18:11;11.60;99.90
12655;DHT22;6392;44.644;11.448;2024-03-17T01:20:38;11.70;99.90
12655;DHT22;6392;44.644;11.448;2024-03-17T01:23:05;11.70;99.90
12655;DHT22;6392;44.644;11.448;2024-03-17T01:25:34;11.70;99.90
12655;DHT22;6392;44.644;11.448;2024-03-17T01:28:03;11.70;99.90
12655;DHT22;6392;44.644;11.448;2024-03-17T01:30:29;11.60;99.90
12655;DHT22;6392;44.644;11.448;2024-03-17T01:32:58;11.60;99.90
12655;DHT22;6392;44.644;11.448;2024-03-17T01:35:25;11.60;99.90
12655;DHT22;6392;44.644;11.448;2024-03-17T01:37:53;11.50;99.90
12655;DHT22;6392;44.644;11.448;2024-03-17T01:40:20;11.50;99.90
12655;DHT22;6392;44.644;11.448;2024-03-17T01:42:49;11.50;99.90
12655;DHT22;6392;44.644;11.448;2024-03-17T01:45:25;11.50;99.90
12655;DHT22;6392;44.644;11.448;2024-03-17T01:47:58;11.50;99.90
12655;DHT22;6392;44.644;11.448;2024-03-17T01:50:25;11.50;99.90
12655;DHT22;6392;44.644;11.448;2024-03-17T01:52:56;11.40;99.90
12655;DHT22;6392;44.644;11.448;2024-03-17T01:55:23;11.30;99.90
12655;DHT22;6392;44.644;11.448;2024-03-17T01:57:52;11.30;99.90
12655;DHT22;6392;44.644;11.448;2024-03-17T02:00:20;11.20;99.90
12655;DHT22;6392;44.644;11.448;2024-03-17T02:02:48;11.10;99.90
12655;DHT22;6392;44.644;11.448;2024-03-17T02:05:15;11.00;99.90
12655;DHT22;6392;44.644;11.448;2024-03-17T02:07:43;11.00;99.90
12655;DHT22;6392;44.644;11.448;2024-03-17T02:10:09;11.10;99.90
12655;DHT22;6392;44.644;11.448;2024-03-17T02:12:37;11.10;99.90
12655;DHT22;6392;44.644;11.448;2024-03-17T02:15:06;11.10;99.90
12655;DHT22;6392;44.644;11.448;2024-03-17T02:17:33;11.10;99.90
12655;DHT22;6392;44.644;11.448;2024-03-17T02:20:05;11.10;99.90
12655;DHT22;6392;44.644;11.448;2024-03-17T02:22:39;11.10;99.90
12655;DHT22;6392;44.644;11.448;2024-03-17T02:25:06;11.20;99.90
12655;DHT22;6392;44.644;11.448;2024-03-17T02:27:34;11.20;99.90
12655;DHT22;6392;44.644;11.448;2024-03-17T02:30:00;11.30;99.90
12655;DHT22;6392;44.644;11.448;2024-03-17T02:32:28;11.40;99.90
12655;DHT22;6392;44.644;11.448;2024-03-17T02:34:54;11.50;99.90
12655;DHT22;6392;44.644;11.448;2024-03-17T02:37:22;11.60;99.90
12655;DHT22;6392;44.644;11.448;2024-03-17T02:39:50;11.50;99.90
12655;DHT22;6392;44.644;11.448;2024-03-17T02:42:17;11.50;99.90
12655;DHT22;6392;44.644;11.448;2024-03-17T02:44:44;11.40;99.90
12655;DHT22;6392;44.644;11.448;2024-03-17T02:47:11;11.40;99.90
12655;DHT22;6392;44.644;11.448;2024-03-17T02:49:40;11.40;99.90
12655;DHT22;6392;44.644;11.448;2024-03-17T02:52:10;11.40;99.90
12655;DHT22;6392;44.644;11.448;2024-03-17T02:54:38;11.40;99.90
12655;DHT22;6392;44.644;11.448;2024-03-17T02:57:07;11.40;99.90
12655;DHT22;6392;44.644;11.448;2024-03-17T02:59:34;11.40;99.90
12655;DHT22;6392;44.644;11.448;2024-03-17T03:02:02;11.30;99.90
12655;DHT22;6392;44.644;11.448;2024-03-17T03:04:31;11.20;99.90
12655;DHT22;6392;44.644;11.448;2024-03-17T03:06:59;11.10;99.90
12655;DHT22;6392;44.644;11.448;2024-03-17T03:09:26;11.00;99.90
12655;DHT22;6392;44.644;11.448;2024-03-17T03:11:57;10.90;99.90
12655;DHT22;6392;44.644;11.448;2024-03-17T03:14:29;10.90;99.90
12655;DHT22;6392;44.644;11.448;2024-03-17T03:16:57;10.90;99.90
12655;DHT22;6392;44.644;11.448;2024-03-17T03:19:26;10.90;99.90
12655;DHT22;6392;44.644;11.448;2024-03-17T03:21:53;10.80;99.90
12655;DHT22;6392;44.644;11.448;2024-03-17T03:24:24;10.80;99.90
12655;DHT22;6392;44.644;11.448;2024-03-17T03:26:52;10.70;99.90
12655;DHT22;6392;44.644;11.448;2024-03-17T03:29:19;10.70;99.90
12655;DHT22;6392;44.644;11.448;2024-03-17T03:31:48;10.70;99.90
12655;DHT22;6392;44.644;11.448;2024-03-17T03:34:15;10.70;99.90
12655;DHT22;6392;44.644;11.448;2024-03-17T03:36:43;10.60;99.90
12655;DHT22;6392;44.644;11.448;2024-03-17T03:39:11;10.60;99.90
12655;DHT22;6392;44.644;11.448;2024-03-17T03:41:39;10.60;99.90
12655;DHT22;6392;44.644;11.448;2024-03-17T03:44:07;10.50;99.90
12655;DHT22;6392;44.644;11.448;2024-03-17T03:46:36;10.50;99.90
12655;DHT22;6392;44.644;11.448;2024-03-17T03:49:05;10.40;99.90
12655;DHT22;6392;44.644;11.448;2024-03-17T03:51:32;10.50;99.90
12655;DHT22;6392;44.644;11.448;2024-03-17T03:54:02;10.50;99.90
12655;DHT22;6392;44.644;11.448;2024-03-17T03:56:32;10.50;99.90
12655;DHT22;6392;44.644;11.448;2024-03-17T03:58:59;10.50;99.90
12655;DHT22;6392;44.644;11.448;2024-03-17T04:01:27;10.40;99.90
12655;DHT22;6392;44.644;11.448;2024-03-17T04:03:54;10.40;99.90
12655;DHT22;6392;44.644;11.448;2024-03-17T04:06:23;10.40;99.90
12655;DHT22;6392;44.644;11.448;2024-03-17T04:08:50;10.30;99.90
12655;DHT22;6392;44.644;11.448;2024-03-17T04:11:18;10.30;99.90
12655;DHT22;6392;44.644;11.448;2024-03-17T04:13:48;10.30;99.90
12655;DHT22;6392;44.644;11.448;2024-03-17T04:16:15;10.30;99.90
12655;DHT22;6392;44.644;11.448;2024-03-17T04:18:42;10.30;99.90
12655;DHT22;6392;44.644;11.448;2024-03-17T04:21:09;10.30;99.90
12655;DHT22;6392;44.644;11.448;2024-03-17T04:23:38;10.40;99.90
12655;DHT22;6392;44.644;11.448;2024-03-17T04:26:05;10.30;99.90
12655;DHT22;6392;44.644;11.448;2024-03-17T04:28:35;10.30;99.90
12655;DHT22;6392;44.644;11.448;2024-03-17T04:31:03;10.30;99.90
12655;DHT22;6392;44.644;11.448;2024-03-17T04:33:31;10.30;99.90
12655;DHT22;6392;44.644;11.448;2024-03-17T04:35:59;10.30;99.90
12655;DHT22;6392;44.644;11.448;2024-03-17T04:38:26;10.20;99.90
12655;DHT22;6392;44.644;11.448;2024-03-17T04:40:55;10.40;99.90
12655;DHT22;6392;44.644;11.448;2024-03-17T04:43:32;10.20;99.90
12655;DHT22;6392;44.644;11.448;2024-03-17T04:46:00;10.20;99.90
12655;DHT22;6392;44.644;11.448;2024-03-17T04:48:32;10.20;99.90
12655;DHT22;6392;44.644;11.448;2024-03-17T04:51:00;10.30;99.90
12655;DHT22;6392;44.644;11.448;2024-03-17T04:53:29;10.30;99.90
12655;DHT22;6392;44.644;11.448;2024-03-17T04:56:05;10.40;99.90
12655;DHT22;6392;44.644;11.448;2024-03-17T04:58:33;10.40;99.90
12655;DHT22;6392;44.644;11.448;2024-03-17T05:01:05;10.50;99.90
12655;DHT22;6392;44.644;11.448;2024-03-17T05:03:33;10.60;99.90
12655;DHT22;6392;44.644;11.448;2024-03-17T05:06:00;10.60;99.90
12655;DHT22;6392;44.644;11.448;2024-03-17T05:08:28;10.70;99.90
12655;DHT22;6392;44.644;11.448;2024-03-17T05:10:57;10.70;99.90
12655;DHT22;6392;44.644;11.448;2024-03-17T05:13:26;10.70;99.90
12655;DHT22;6392;44.644;11.448;2024-03-17T05:15:54;10.60;99.90
12655;DHT22;6392;44.644;11.448;2024-03-17T05:18:21;10.60;99.90
12655;DHT22;6392;44.644;11.448;2024-03-17T05:20:59;10.50;99.90
12655;DHT22;6392;44.644;11.448;2024-03-17T05:23:27;10.30;99.90
12655;DHT22;6392;44.644;11.448;2024-03-17T05:25:55;10.20;99.90
12655;DHT22;6392;44.644;11.448;2024-03-17T05:28:23;10.20;99.90
12655;DHT22;6392;44.644;11.448;2024-03-17T05:30:52;10.10;99.90
12655;DHT22;6392;44.644;11.448;2024-03-17T05:33:21;10.10;99.90
12655;DHT22;6392;44.644;11.448;2024-03-17T05:35:49;10.10;99.90
12655;DHT22;6392;44.644;11.448;2024-03-17T05:38:18;10.10;99.90
12655;DHT22;6392;44.644;11.448;2024-03-17T05:40:53;10.10;99.90
12655;DHT22;6392;44.644;11.448;2024-03-17T05:43:22;10.00;99.90
12655;DHT22;6392;44.644;11.448;2024-03-17T05:45:54;10.00;99.90
12655;DHT22;6392;44.644;11.448;2024-03-17T05:48:21;10.00;99.90
12655;DHT22;6392;44.644;11.448;2024-03-17T05:50:50;10.10;99.90
12655;DHT22;6392;44.644;11.448;2024-03-17T05:53:18;10.10;99.90
12655;DHT22;6392;44.644;11.448;2024-03-17T05:55:45;10.20;99.90
12655;DHT22;6392;44.644;11.448;2024-03-17T05:58:12;10.20;99.90
12655;DHT22;6392;44.644;11.448;2024-03-17T06:00:40;10.30;99.90
12655;DHT22;6392;44.644;11.448;2024-03-17T06:03:09;10.40;99.90
12655;DHT22;6392;44.644;11.448;2024-03-17T06:05:38;10.40;99.90
12655;DHT22;6392;44.644;11.448;2024-03-17T06:08:07;10.40;99.90
12655;DHT22;6392;44.644;11.448;2024-03-17T06:10:37;10.50;99.90
12655;DHT22;6392;44.644;11.448;2024-03-17T06:13:06;10.50;99.90
12655;DHT22;6392;44.644;11.448;2024-03-17T06:15:37;10.50;99.90
12655;DHT22;6392;44.644;11.448;2024-03-17T06:18:05;10.60;99.90
12655;DHT22;6392;44.644;11.448;2024-03-17T06:20:36;10.60;99.90
12655;DHT22;6392;44.644;11.448;2024-03-17T06:23:07;10.60;99.90
12655;DHT22;6392;44.644;11.448;2024-03-17T06:25:38;10.60;99.90
12655;DHT22;6392;44.644;11.448;2024-03-17T06:28:06;10.70;99.90
12655;DHT22;6392;44.644;11.448;2024-03-17T06:30:33;10.70;99.90
12655;DHT22;6392;44.644;11.448;2024-03-17T06:33:02;10.70;99.90
12655;DHT22;6392;44.644;11.448;2024-03-17T06:35:29;10.80;99.90
12655;DHT22;6392;44.644;11.448;2024-03-17T06:38:00;10.80;99.90
12655;DHT22;6392;44.644;11.448;2024-03-17T06:40:28;10.90;99.90
12655;DHT22;6392;44.644;11.448;2024-03-17T06:42:56;10.70;99.90
12655;DHT22;6392;44.644;11.448;2024-03-17T06:45:24;11.00;99.90
12655;DHT22;6392;44.644;11.448;2024-03-17T06:47:51;11.10;99.90
12655;DHT22;6392;44.644;11.448;2024-03-17T06:50:18;11.10;99.90
12655;DHT22;6392;44.644;11.448;2024-03-17T06:52:46;11.20;99.90
12655;DHT22;6392;44.644;11.448;2024-03-17T06:55:15;11.30;99.90
12655;DHT22;6392;44.644;11.448;2024-03-17T06:57:43;11.40;99.90
12655;DHT22;6392;44.644;11.448;2024-03-17T07:00:13;11.50;99.90
12655;DHT22;6392;44.644;11.448;2024-03-17T07:02:42;11.70;99.90
12655;DHT22;6392;44.644;11.448;2024-03-17T07:05:14;11.70;99.90
12655;DHT22;6392;44.644;11.448;2024-03-17T07:07:41;11.80;99.90
12655;DHT22;6392;44.644;11.448;2024-03-17T07:10:09;11.90;99.90
12655;DHT22;6392;44.644;11.448;2024-03-17T07:12:41;12.00;99.90
12655;DHT22;6392;44.644;11.448;2024-03-17T07:15:09;12.10;99.90
12655;DHT22;6392;44.644;11.448;2024-03-17T07:17:37;12.10;99.90
12655;DHT22;6392;44.644;11.448;2024-03-17T07:20:05;12.20;99.90
12655;DHT22;6392;44.644;11.448;2024-03-17T07:22:34;12.30;99.90
12655;DHT22;6392;44.644;11.448;2024-03-17T07:25:01;12.30;99.90
12655;DHT22;6392;44.644;11.448;2024-03-17T07:27:29;12.40;99.90
12655;DHT22;6392;44.644;11.448;2024-03-17T07:30:02;12.50;99.90
12655;DHT22;6392;44.644;11.448;2024-03-17T07:32:32;12.60;99.90
12655;DHT22;6392;44.644;11.448;2024-03-17T07:34:59;12.70;99.90
12655;DHT22;6392;44.644;11.448;2024-03-17T07:37:27;12.80;99.90
12655;DHT22;6392;44.644;11.448;2024-03-17T07:39:54;12.80;99.90
12655;DHT22;6392;44.644;11.448;2024-03-17T07:42:23;13.00;99.90
12655;DHT22;6392;44.644;11.448;2024-03-17T07:44:50;13.00;99.90
12655;DHT22;6392;44.644;11.448;2024-03-17T07:47:19;13.00;99.90
12655;DHT22;6392;44.644;11.448;2024-03-17T07:49:47;13.00;99.90
12655;DHT22;6392;44.644;11.448;2024-03-17T07:52:14;13.10;99.90
12655;DHT22;6392;44.644;11.448;2024-03-17T07:54:41;13.10;99.90
12655;DHT22;6392;44.644;11.448;2024-03-17T07:57:08;13.20;99.90
12655;DHT22;6392;44.644;11.448;2024-03-17T07:59:38;13.20;99.90
12655;DHT22;6392;44.644;11.448;2024-03-17T08:02:05;13.20;99.90
12655;DHT22;6392;44.644;11.448;2024-03-17T08:04:35;13.20;99.90
12655;DHT22;6392;44.644;11.448;2024-03-17T08:07:05;13.30;99.90
12655;DHT22;6392;44.644;11.448;2024-03-17T08:09:32;13.40;99.90
12655;DHT22;6392;44.644;11.448;2024-03-17T08:11:59;13.50;99.90
12655;DHT22;6392;44.644;11.448;2024-03-17T08:14:27;13.60;99.90
12655;DHT22;6392;44.644;11.448;2024-03-17T08:16:55;13.70;99.90
12655;DHT22;6392;44.644;11.448;2024-03-17T08:19:22;13.70;99.90
12655;DHT22;6392;44.644;11.448;2024-03-17T08:21:51;13.80;99.90
12655;DHT22;6392;44.644;11.448;2024-03-17T08:24:18;13.90;99.90
12655;DHT22;6392;44.644;11.448;2024-03-17T08:26:46;13.90;99.90
12655;DHT22;6392;44.644;11.448;2024-03-17T08:29:13;14.00;99.90
12655;DHT22;6392;44.644;11.448;2024-03-17T08:31:40;14.10;99.90
12655;DHT22;6392;44.644;11.448;2024-03-17T08:34:10;14.10;99.90
12655;DHT22;6392;44.644;11.448;2024-03-17T08:36:38;14.20;99.90
12655;DHT22;6392;44.644;11.448;2024-03-17T08:39:07;14.20;99.90
12655;DHT22;6392;44.644;11.448;2024-03-17T08:41:36;14.30;99.90
12655;DHT22;6392;44.644;11.448;2024-03-17T08:44:04;14.40;99.90
12655;DHT22;6392;44.644;11.448;2024-03-17T08:46:32;14.50;99.90
12655;DHT22;6392;44.644;11.448;2024-03-17T08:48:59;14.60;99.90
12655;DHT22;6392;44.644;11.448;2024-03-17T08:51:27;14.70;99.90
12655;DHT22;6392;44.644;11.448;2024-03-17T08:53:55;14.70;99.90
12655;DHT22;6392;44.644;11.448;2024-03-17T08:56:24;14.80;99.90
12655;DHT22;6392;44.644;11.448;2024-03-17T08:58:52;15.00;99.90
12655;DHT22;6392;44.644;11.448;2024-03-17T09:01:19;15.10;99.90
12655;DHT22;6392;44.644;11.448;2024-03-17T09:03:47;15.30;99.90
12655;DHT22;6392;44.644;11.448;2024-03-17T09:06:19;15.40;99.90
12655;DHT22;6392;44.644;11.448;2024-03-17T09:08:48;15.50;99.90
12655;DHT22;6392;44.644;11.448;2024-03-17T09:11:15;15.60;99.90
12655;DHT22;6392;44.644;11.448;2024-03-17T09:13:44;15.70;99.90
12655;DHT22;6392;44.644;11.448;2024-03-17T09:16:12;15.80;99.90
12655;DHT22;6392;44.644;11.448;2024-03-17T09:18:39;15.80;99.90
12655;DHT22;6392;44.644;11.448;2024-03-17T09:21:08;15.80;99.90
12655;DHT22;6392;44.644;11.448;2024-03-17T09:23:36;15.90;99.90
12655;DHT22;6392;44.644;11.448;2024-03-17T09:26:05;15.90;99.90
12655;DHT22;6392;44.644;11.448;2024-03-17T09:28:34;16.00;99.90
12655;DHT22;6392;44.644;11.448;2024-03-17T09:31:04;16.00;99.90
12655;DHT22;6392;44.644;11.448;2024-03-17T09:33:33;16.00;99.90
12655;DHT22;6392;44.644;11.448;2024-03-17T09:36:02;16.10;99.90
12655;DHT22;6392;44.644;11.448;2024-03-17T09:38:29;16.00;99.90
12655;DHT22;6392;44.644;11.448;2024-03-17T09:40:57;16.10;99.90
12655;DHT22;6392;44.644;11.448;2024-03-17T09:43:27;16.10;99.90
12655;DHT22;6392;44.644;11.448;2024-03-17T09:45:55;16.10;99.90
12655;DHT22;6392;44.644;11.448;2024-03-17T09:48:25;16.10;99.90
12655;DHT22;6392;44.644;11.448;2024-03-17T09:50:54;16.20;99.90
12655;DHT22;6392;44.644;11.448;2024-03-17T09:53:24;16.20;99.90
12655;DHT22;6392;44.644;11.448;2024-03-17T09:55:52;16.20;99.90
12655;DHT22;6392;44.644;11.448;2024-03-17T09:58:20;16.30;99.90
12655;DHT22;6392;44.644;11.448;2024-03-17T10:00:46;16.30;99.90
12655;DHT22;6392;44.644;11.448;2024-03-17T10:03:41;16.40;99.90
12655;DHT22;6392;44.644;11.448;2024-03-17T10:06:09;16.40;99.90
12655;DHT22;6392;44.644;11.448;2024-03-17T10:08:42;16.40;99.90
12655;DHT22;6392;44.644;11.448;2024-03-17T10:14:32;16.50;99.90
12655;DHT22;6392;44.644;11.448;2024-03-17T10:16:59;16.60;99.90
12655;DHT22;6392;44.644;11.448;2024-03-17T10:19:28;16.60;99.90
12655;DHT22;6392;44.644;11.448;2024-03-17T10:21:59;16.70;99.90
12655;DHT22;6392;44.644;11.448;2024-03-17T10:24:30;16.80;99.90
12655;DHT22;6392;44.644;11.448;2024-03-17T10:27:01;16.80;99.90
12655;DHT22;6392;44.644;11.448;2024-03-17T10:29:33;16.90;99.90
12655;DHT22;6392;44.644;11.448;2024-03-17T10:32:03;16.90;99.90
12655;DHT22;6392;44.644;11.448;2024-03-17T10:34:33;17.00;99.90
12655;DHT22;6392;44.644;11.448;2024-03-17T10:37:08;17.00;99.90
12655;DHT22;6392;44.644;11.448;2024-03-17T10:39:37;17.10;99.90
12655;DHT22;6392;44.644;11.448;2024-03-17T10:42:07;17.20;99.90
12655;DHT22;6392;44.644;11.448;2024-03-17T10:44:35;17.20;99.90
12655;DHT22;6392;44.644;11.448;2024-03-17T10:47:04;17.20;99.90
12655;DHT22;6392;44.644;11.448;2024-03-17T10:49:38;17.30;99.90
12655;DHT22;6392;44.644;11.448;2024-03-17T10:52:06;17.40;99.90
12655;DHT22;6392;44.644;11.448;2024-03-17T10:54:35;17.50;99.90
12655;DHT22;6392;44.644;11.448;2024-03-17T10:57:12;17.60;99.90
12655;DHT22;6392;44.644;11.448;2024-03-17T10:59:47;17.60;99.90
12655;DHT22;6392;44.644;11.448;2024-03-17T11:02:21;17.70;99.90
12655;DHT22;6392;44.644;11.448;2024-03-17T11:04:55;17.80;99.90
12655;DHT22;6392;44.644;11.448;2024-03-17T11:07:23;17.80;99.90
12655;DHT22;6392;44.644;11.448;2024-03-17T11:09:54;17.80;99.90
12655;DHT22;6392;44.644;11.448;2024-03-17T11:12:42;17.90;99.90
12655;DHT22;6392;44.644;11.448;2024-03-17T11:18:35;18.00;99.90
12655;DHT22;6392;44.644;11.448;2024-03-17T11:21:06;18.00;99.90
12655;DHT22;6392;44.644;11.448;2024-03-17T11:23:42;18.10;99.90
12655;DHT22;6392;44.644;11.448;2024-03-17T11:26:11;18.10;99.90
12655;DHT22;6392;44.644;11.448;2024-03-17T11:28:48;18.20;99.90
12655;DHT22;6392;44.644;11.448;2024-03-17T11:31:35;18.30;99.90
12655;DHT22;6392;44.644;11.448;2024-03-17T11:34:05;18.40;99.90
12655;DHT22;6392;44.644;11.448;2024-03-17T11:36:38;18.40;99.90
12655;DHT22;6392;44.644;11.448;2024-03-17T11:39:05;18.30;99.90
12655;DHT22;6392;44.644;11.448;2024-03-17T11:41:38;18.40;99.90
12655;DHT22;6392;44.644;11.448;2024-03-17T11:44:15;18.40;99.90
12655;DHT22;6392;44.644;11.448;2024-03-17T11:49:24;18.60;99.90
12655;DHT22;6392;44.644;11.448;2024-03-17T11:51:54;18.70;99.90
12655;DHT22;6392;44.644;11.448;2024-03-17T11:54:24;18.70;99.90
12655;DHT22;6392;44.644;11.448;2024-03-17T11:56:53;18.70;99.90
12655;DHT22;6392;44.644;11.448;2024-03-17T11:59:21;18.80;99.90
12655;DHT22;6392;44.644;11.448;2024-03-17T12:01:49;18.80;99.90
12655;DHT22;6392;44.644;11.448;2024-03-17T12:04:18;18.90;99.90
12655;DHT22;6392;44.644;11.448;2024-03-17T12:06:46;19.00;99.90
12655;DHT22;6392;44.644;11.448;2024-03-17T12:09:20;19.10;99.90
12655;DHT22;6392;44.644;11.448;2024-03-17T12:11:48;19.10;99.90
12655;DHT22;6392;44.644;11.448;2024-03-17T12:14:19;19.20;99.90
12655;DHT22;6392;44.644;11.448;2024-03-17T12:16:48;19.30;99.90
12655;DHT22;6392;44.644;11.448;2024-03-17T12:19:15;19.30;99.90
12655;DHT22;6392;44.644;11.448;2024-03-17T12:21:46;19.30;99.90
12655;DHT22;6392;44.644;11.448;2024-03-17T12:24:19;19.30;99.90
12655;DHT22;6392;44.644;11.448;2024-03-17T12:26:49;19.40;99.90
12655;DHT22;6392;44.644;11.448;2024-03-17T12:29:32;19.50;99.90
12655;DHT22;6392;44.644;11.448;2024-03-17T12:32:02;19.60;99.90
12655;DHT22;6392;44.644;11.448;2024-03-17T12:34:32;19.70;99.90
12655;DHT22;6392;44.644;11.448;2024-03-17T12:37:00;19.70;99.90
12655;DHT22;6392;44.644;11.448;2024-03-17T12:39:29;19.70;99.90
12655;DHT22;6392;44.644;11.448;2024-03-17T12:42:05;19.80;99.90
12655;DHT22;6392;44.644;11.448;2024-03-17T12:44:33;19.80;99.90
12655;DHT22;6392;44.644;11.448;2024-03-17T12:47:02;19.90;99.90
12655;DHT22;6392;44.644;11.448;2024-03-17T12:49:30;19.90;99.90
12655;DHT22;6392;44.644;11.448;2024-03-17T12:51:58;20.00;99.90
12655;DHT22;6392;44.644;11.448;2024-03-17T12:54:26;20.10;99.90
12655;DHT22;6392;44.644;11.448;2024-03-17T12:57:06;20.20;99.90
12655;DHT22;6392;44.644;11.448;2024-03-17T12:59:51;20.20;99.90
12655;DHT22;6392;44.644;11.448;2024-03-17T13:02:41;20.20;99.90
12655;DHT22;6392;44.644;11.448;2024-03-17T13:05:16;20.30;99.90
12655;DHT22;6392;44.644;11.448;2024-03-17T13:07:45;20.40;99.90
12655;DHT22;6392;44.644;11.448;2024-03-17T13:10:14;20.50;99.90
12655;DHT22;6392;44.644;11.448;2024-03-17T13:12:43;20.60;99.90
12655;DHT22;6392;44.644;11.448;2024-03-17T13:15:12;20.70;99.90
12655;DHT22;6392;44.644;11.448;2024-03-17T13:17:41;20.80;99.90
12655;DHT22;6392;44.644;11.448;2024-03-17T13:20:14;20.70;99.90
12655;DHT22;6392;44.644;11.448;2024-03-17T13:22:42;20.40;99.90
12655;DHT22;6392;44.644;11.448;2024-03-17T13:25:14;20.20;99.90
12655;DHT22;6392;44.644;11.448;2024-03-17T13:27:43;20.10;99.90
12655;DHT22;6392;44.644;11.448;2024-03-17T13:30:12;20.00;99.90
12655;DHT22;6392;44.644;11.448;2024-03-17T13:32:39;19.90;99.90
12655;DHT22;6392;44.644;11.448;2024-03-17T13:35:15;19.80;99.90
12655;DHT22;6392;44.644;11.448;2024-03-17T13:37:45;19.80;99.90
12655;DHT22;6392;44.644;11.448;2024-03-17T13:40:18;19.90;99.90
12655;DHT22;6392;44.644;11.448;2024-03-17T13:42:49;20.00;99.90
12655;DHT22;6392;44.644;11.448;2024-03-17T13:45:21;20.00;99.90
12655;DHT22;6392;44.644;11.448;2024-03-17T13:47:52;20.00;99.90
12655;DHT22;6392;44.644;11.448;2024-03-17T13:50:22;20.10;99.90
12655;DHT22;6392;44.644;11.448;2024-03-17T13:52:50;20.30;99.90
12655;DHT22;6392;44.644;11.448;2024-03-17T13:55:23;20.50;99.90
12655;DHT22;6392;44.644;11.448;2024-03-17T13:57:57;20.80;99.90
12655;DHT22;6392;44.644;11.448;2024-03-17T14:00:27;21.00;99.90
12655;DHT22;6392;44.644;11.448;2024-03-17T14:02:56;21.10;99.90
12655;DHT22;6392;44.644;11.448;2024-03-17T14:05:25;21.10;99.90
12655;DHT22;6392;44.644;11.448;2024-03-17T14:07:54;21.20;99.90
12655;DHT22;6392;44.644;11.448;2024-03-17T14:10:24;21.20;99.90
12655;DHT22;6392;44.644;11.448;2024-03-17T14:12:55;21.20;99.90
12655;DHT22;6392;44.644;11.448;2024-03-17T14:15:25;21.20;99.90
12655;DHT22;6392;44.644;11.448;2024-03-17T14:17:55;21.10;99.90
12655;DHT22;6392;44.644;11.448;2024-03-17T14:20:23;21.00;99.90
12655;DHT22;6392;44.644;11.448;2024-03-17T14:22:52;20.80;99.90
12655;DHT22;6392;44.644;11.448;2024-03-17T14:25:24;20.70;99.90
12655;DHT22;6392;44.644;11.448;2024-03-17T14:27:57;20.60;99.90
12655;DHT22;6392;44.644;11.448;2024-03-17T14:30:26;20.60;99.90
12655;DHT22;6392;44.644;11.448;2024-03-17T14:32:57;20.60;99.90
12655;DHT22;6392;44.644;11.448;2024-03-17T14:35:25;20.60;99.90
12655;DHT22;6392;44.644;11.448;2024-03-17T14:37:53;20.60;99.90
12655;DHT22;6392;44.644;11.448;2024-03-17T14:40:28;20.60;99.90
12655;DHT22;6392;44.644;11.448;2024-03-17T14:42:59;20.50;99.90
12655;DHT22;6392;44.644;11.448;2024-03-17T14:45:31;20.60;99.90
12655;DHT22;6392;44.644;11.448;2024-03-17T14:48:01;20.60;99.90
12655;DHT22;6392;44.644;11.448;2024-03-17T14:50:29;20.60;99.90
12655;DHT22;6392;44.644;11.448;2024-03-17T14:52:57;20.50;99.90
12655;DHT22;6392;44.644;11.448;2024-03-17T14:55:25;20.50;99.90
12655;DHT22;6392;44.644;11.448;2024-03-17T14:57:54;20.40;99.90
12655;DHT22;6392;44.644;11.448;2024-03-17T15:00:24;20.40;99.90
12655;DHT22;6392;44.644;11.448;2024-03-17T15:02:52;20.30;99.90
12655;DHT22;6392;44.644;11.448;2024-03-17T15:05:21;20.30;99.90
12655;DHT22;6392;44.644;11.448;2024-03-17T15:07:51;20.30;99.90
12655;DHT22;6392;44.644;11.448;2024-03-17T15:10:20;20.30;99.90
12655;DHT22;6392;44.644;11.448;2024-03-17T15:12:50;20.30;99.90
12655;DHT22;6392;44.644;11.448;2024-03-17T15:15:18;20.20;99.90
12655;DHT22;6392;44.644;11.448;2024-03-17T15:17:48;20.20;99.90
12655;DHT22;6392;44.644;11.448;2024-03-17T15:20:18;20.20;99.90
12655;DHT22;6392;44.644;11.448;2024-03-17T15:22:48;20.20;99.90
12655;DHT22;6392;44.644;11.448;2024-03-17T15:25:20;20.20;99.90
12655;DHT22;6392;44.644;11.448;2024-03-17T15:27:50;20.20;99.90
12655;DHT22;6392;44.644;11.448;2024-03-17T15:30:18;20.20;99.90
12655;DHT22;6392;44.644;11.448;2024-03-17T15:32:48;20.20;99.90
12655;DHT22;6392;44.644;11.448;2024-03-17T15:35:20;20.20;99.90
12655;DHT22;6392;44.644;11.448;2024-03-17T15:37:47;20.20;99.90
12655;DHT22;6392;44.644;11.448;2024-03-17T15:40:15;20.20;99.90
12655;DHT22;6392;44.644;11.448;2024-03-17T15:42:44;20.20;99.90
12655;DHT22;6392;44.644;11.448;2024-03-17T15:45:12;20.10;99.90
12655;DHT22;6392;44.644;11.448;2024-03-17T15:47:40;20.10;99.90
12655;DHT22;6392;44.644;11.448;2024-03-17T15:50:09;20.10;99.90
12655;DHT22;6392;44.644;11.448;2024-03-17T15:52:36;20.00;99.90
12655;DHT22;6392;44.644;11.448;2024-03-17T15:55:05;20.00;99.90